Time;durP1;ratioP1;P1;durP2;ratioP2;P2;SDS_P1;SDS_P2;PMS_P1;PMS_P2;Temp;Humidity;BMP_temperature;BMP_pressure;BME280_temperature;BME280_humidity;BME280_pressure;Samples;Min_cycle;Max_cycle;Signal;HPM_P1;HPM_P2
2021/08/15 00:01:09;;;;;;;0.95;0.82;;;15.70;72.50;;;18.45;59.87;101665.22;3188901;38;132129;-70
2021/08/15 00:04:17;;;;;;;0.85;0.85;;;15.70;72.50;;;18.40;59.87;101658.09;3190450;30;129761;-70
2021/08/15 00:07:23;;;;;;;2.90;2.63;;;15.60;72.50;;;18.38;59.88;101664.97;3190735;38;131359;-70
2021/08/15 00:10:29;;;;;;;1.85;1.10;;;15.60;72.50;;;18.42;59.37;101661.28;3190402;30;131722;-71
2021/08/15 00:13:35;;;;;;;0.25;0.25;;;15.50;72.60;;;18.42;59.69;101665.91;3189576;38;131949;-70
2021/08/15 00:16:41;;;;;;;1.50;1.40;;;15.50;72.60;;;18.37;59.48;101666.91;3186816;38;132344;-72
2021/08/15 00:19:50;;;;;;;1.25;0.93;;;15.50;72.60;;;18.33;59.64;101662.47;3188720;38;130085;-71
2021/08/15 00:22:56;;;;;;;2.03;0.98;;;15.50;72.60;;;18.23;59.74;101657.41;3189527;30;129670;-71
2021/08/15 00:26:02;;;;;;;1.00;0.95;;;15.40;72.60;;;18.21;59.98;101655.00;3190157;30;129763;-72
2021/08/15 00:29:08;;;;;;;2.03;1.83;;;15.40;72.60;;;18.18;60.06;101652.97;3189387;38;133306;-71
2021/08/15 00:32:14;;;;;;;1.00;0.95;;;15.40;72.80;;;18.24;59.88;101635.34;3189410;30;129761;-70
2021/08/15 00:35:23;;;;;;;0.70;0.57;;;15.40;72.80;;;18.25;59.56;101628.81;3189162;30;130599;-71
2021/08/15 00:38:32;;;;;;;4.45;2.08;;;15.40;72.70;;;18.25;59.66;101633.44;3188808;30;129842;-71
2021/08/15 00:41:38;;;;;;;0.43;0.43;;;15.40;72.80;;;18.31;59.46;101624.78;3189701;30;129810;-71
2021/08/15 00:44:46;;;;;;;2.08;1.23;;;15.40;72.80;;;18.34;59.29;101642.34;3189013;30;129863;-70
2021/08/15 00:47:51;;;;;;;0.82;0.75;;;15.40;72.70;;;18.35;59.26;101642.03;3190342;30;130890;-70
2021/08/15 00:51:01;;;;;;;1.02;0.38;;;15.40;72.70;;;18.42;59.08;101625.19;3189592;38;130801;-70
2021/08/15 00:54:09;;;;;;;0.55;0.55;;;15.40;72.70;;;18.44;58.95;101626.47;3186560;38;130119;-70
2021/08/15 00:57:15;;;;;;;1.02;0.90;;;15.50;72.70;;;18.45;59.25;101628.03;3188536;30;130835;-71
2021/08/15 01:00:21;;;;;;;1.08;1.02;;;15.40;72.60;;;18.50;59.29;101629.78;3189559;38;131185;-71
2021/08/15 01:03:27;;;;;;;1.75;1.10;;;15.50;72.70;;;18.53;58.87;101635.31;3189534;31;134256;-71
2021/08/15 01:06:38;;;;;;;0.85;0.65;;;15.50;72.70;;;18.65;58.79;101631.84;3189904;38;129792;-71
2021/08/15 01:09:44;;;;;;;0.68;0.68;;;15.60;72.70;;;18.68;58.65;101632.00;3189223;30;130747;-71
2021/08/15 01:12:50;;;;;;;0.50;0.50;;;15.60;73.30;;;18.75;58.70;101634.16;3186622;30;130737;-70
2021/08/15 01:15:57;;;;;;;1.55;0.50;;;15.60;72.60;;;18.77;58.63;101624.56;3186524;38;130205;-70
2021/08/15 01:19:02;;;;;;;6.60;1.27;;;15.70;72.60;;;18.83;58.69;101628.63;3189356;38;129747;-70
2021/08/15 01:22:15;;;;;;;11.80;1.27;;;15.70;72.60;;;18.85;58.56;101625.59;3189165;30;130850;-71
2021/08/15 01:25:21;;;;;;;0.52;0.52;;;15.70;72.50;;;18.80;58.63;101623.88;3194771;38;130036;-70
2021/08/15 01:28:31;;;;;;;0.28;0.28;;;15.70;72.40;;;18.77;58.63;101602.84;3191082;38;130484;-70
2021/08/15 01:31:37;;;;;;;1.80;0.95;;;15.80;72.40;;;18.75;59.01;101607.00;3189261;38;130717;-70
2021/08/15 01:34:43;;;;;;;0.70;0.70;;;15.70;72.40;;;18.78;58.93;101603.63;3188114;38;129694;-70
2021/08/15 01:37:48;;;;;;;0.08;0.08;;;15.80;72.50;;;18.78;58.56;101604.41;3188711;38;132811;-70
2021/08/15 01:40:56;;;;;;;0.52;0.52;;;15.70;72.40;;;18.71;58.93;101601.47;3188398;38;130767;-70
2021/08/15 01:44:06;;;;;;;0.50;0.50;;;15.70;72.50;;;18.76;59.00;101603.97;3188679;38;130104;-70
2021/08/15 01:47:12;;;;;;;1.80;1.58;;;15.80;72.60;;;18.76;59.06;101612.09;3189369;30;131249;-71
2021/08/15 01:50:18;;;;;;;5.28;1.30;;;15.80;72.50;;;18.80;58.97;101602.16;3189702;30;131216;-71
2021/08/15 01:53:26;;;;;;;0.52;0.52;;;15.80;72.50;;;18.82;58.73;101605.31;3188885;38;130982;-70
2021/08/15 01:56:32;;;;;;;0.20;0.20;;;15.80;72.50;;;18.82;59.09;101605.31;3187495;38;130611;-70
2021/08/15 01:59:40;;;;;;;5.28;1.55;;;15.80;72.50;;;18.82;58.91;101599.91;3189052;38;129861;-70
2021/08/15 02:02:47;;;;;;;1.08;0.80;;;15.80;72.50;;;18.85;58.88;101601.94;3188064;38;129808;-71
2021/08/15 02:05:53;;;;;;;1.75;0.88;;;15.90;72.60;;;18.92;58.80;101594.84;3187211;38;131325;-70
2021/08/15 02:08:59;;;;;;;1.17;1.08;;;15.90;72.60;;;18.98;58.65;101587.28;3190910;30;130823;-70
2021/08/15 02:12:08;;;;;;;1.75;0.30;;;15.90;72.50;;;19.00;59.05;101574.16;3188916;30;130699;-70
2021/08/15 02:15:17;;;;;;;0.40;0.40;;;16.00;72.50;;;19.01;58.95;101573.03;3190259;38;129898;-70
2021/08/15 02:18:23;;;;;;;1.45;1.35;;;16.00;72.50;;;19.07;58.72;101566.22;3188943;38;129912;-70
2021/08/15 02:21:29;;;;;;;0.90;0.85;;;16.10;72.50;;;19.06;59.05;101572.78;3187553;38;131759;-70
2021/08/15 02:24:35;;;;;;;5.78;1.50;;;16.00;72.40;;;19.07;59.17;101569.75;3187828;38;130823;-70
2021/08/15 02:27:43;;;;;;;2.65;0.82;;;16.10;72.50;;;19.16;58.77;101569.66;3189306;30;130286;-70
2021/08/15 02:30:52;;;;;;;0.80;0.80;;;16.10;72.50;;;19.18;58.86;101561.97;3188903;38;131711;-70
2021/08/15 02:33:57;;;;;;;1.17;1.08;;;16.10;72.50;;;19.19;58.58;101561.63;3187712;38;130823;-71
2021/08/15 02:37:05;;;;;;;1.08;0.55;;;16.20;72.50;;;19.20;58.92;101552.34;3186781;38;130806;-70
2021/08/15 02:40:18;;;;;;;1.85;1.20;;;16.20;72.50;;;19.19;58.79;101563.53;3190168;30;130065;-71
2021/08/15 02:43:24;;;;;;;3.80;1.50;;;16.20;72.50;;;19.18;58.99;101553.81;3188651;38;130794;-71
2021/08/15 02:46:32;;;;;;;4.18;1.92;;;16.20;72.50;;;19.11;59.11;101551.66;3190341;38;130481;-71
2021/08/15 02:49:40;;;;;;;17.17;1.58;;;16.10;72.40;;;19.11;59.10;101551.66;3188640;38;130791;-71
2021/08/15 02:52:46;;;;;;;0.88;0.63;;;16.20;72.60;;;19.12;59.00;101549.69;3188417;38;131181;-71
2021/08/15 02:55:52;;;;;;;10.57;1.67;;;16.20;72.60;;;19.13;59.23;101551.28;3187312;38;130076;-71
2021/08/15 02:58:58;;;;;;;1.23;0.70;;;16.20;72.60;;;19.10;59.21;101541.91;3189530;38;131167;-70
2021/08/15 03:02:10;;;;;;;0.43;0.43;;;16.10;72.60;;;19.11;58.98;101527.19;3189585;38;130735;-71
2021/08/15 03:05:16;;;;;;;1.25;0.90;;;16.10;72.60;;;19.04;59.42;101518.00;3188538;30;130563;-70
2021/08/15 03:08:22;;;;;;;2.38;0.88;;;16.10;72.60;;;19.01;59.22;101516.75;3188833;38;130791;-70
2021/08/15 03:11:28;;;;;;;0.20;0.20;;;16.10;72.70;;;19.02;59.22;101517.56;3189394;30;130663;-70
2021/08/15 03:14:34;;;;;;;2.88;0.47;;;16.10;72.80;;;18.91;59.43;101519.13;3189799;30;130759;-70
2021/08/15 03:17:43;;;;;;;0.68;0.68;;;16.00;72.70;;;18.84;59.85;101520.81;3189657;30;131260;-70
2021/08/15 03:20:50;;;;;;;0.30;0.30;;;16.00;72.80;;;18.88;59.72;101513.59;3191379;38;130701;-70
2021/08/15 03:23:55;;;;;;;0.68;0.68;;;16.00;72.90;;;18.88;59.48;101516.31;3190254;30;129403;-70
2021/08/15 03:27:02;;;;;;;5.68;1.00;;;16.00;72.90;;;18.92;59.55;101514.50;3190509;30;130306;-70
2021/08/15 03:30:09;;;;;;;3.63;1.65;;;16.00;72.90;;;18.88;59.72;101511.66;3189562;30;130786;-70
2021/08/15 03:33:18;;;;;;;1.70;1.60;;;16.00;72.90;;;18.89;59.80;101502.38;3191335;30;130241;-71
2021/08/15 03:36:23;;;;;;;0.25;0.25;;;15.90;72.90;;;18.91;59.47;101502.03;3190167;38;131281;-70
2021/08/15 03:39:30;;;;;;;2.20;1.27;;;16.00;73.00;;;18.91;59.75;101481.09;3188913;38;131140;-70
2021/08/15 03:42:36;;;;;;;3.45;2.30;;;16.00;73.00;;;18.92;59.62;101483.47;3189944;30;130715;-70
2021/08/15 03:45:42;;;;;;;5.70;1.83;;;15.90;73.00;;;18.91;59.65;101481.09;3189675;38;133744;-70
2021/08/15 03:48:50;;;;;;;3.22;0.85;;;15.90;73.00;;;18.91;59.48;101478.38;3189476;30;131660;-70
2021/08/15 03:51:57;;;;;;;6.95;2.05;;;15.90;73.00;;;18.87;59.62;101469.31;3188692;38;130280;-70
2021/08/15 03:55:02;;;;;;;2.85;1.27;;;15.90;73.00;;;18.85;59.54;101482.44;3191401;30;129883;-71
2021/08/15 03:58:08;;;;;;;1.65;0.55;;;15.90;73.00;;;18.83;59.39;101476.56;3188621;30;130847;-70
2021/08/15 04:01:14;;;;;;;0.95;0.85;;;15.90;73.10;;;18.81;59.78;101467.97;3188618;38;131297;-70
2021/08/15 04:04:23;;;;;;;18.13;2.00;;;15.90;73.00;;;18.78;59.71;101479.50;3189241;38;130787;-70
2021/08/15 04:07:28;;;;;;;12.55;1.17;;;15.80;73.00;;;18.77;59.54;101486.06;3188518;38;130807;-70
2021/08/15 04:10:35;;;;;;;0.93;0.70;;;15.80;73.10;;;18.75;59.70;101480.19;3189334;30;130713;-71
2021/08/15 04:13:40;;;;;;;0.55;0.35;;;15.70;73.10;;;18.75;59.43;101482.91;3189542;38;130890;-70
2021/08/15 04:16:46;;;;;;;1.25;1.15;;;15.70;73.20;;;18.71;59.52;101476.56;3188758;38;131356;-70
2021/08/15 04:19:54;;;;;;;0.65;0.65;;;15.70;73.20;;;18.71;59.40;101479.28;3189262;30;130648;-70
2021/08/15 04:23:00;;;;;;;1.95;1.25;;;15.70;73.20;;;18.70;59.75;101485.84;3187131;30;133452;-70
2021/08/15 04:26:08;;;;;;;0.43;0.43;;;15.70;73.20;;;18.67;59.78;101489.25;3188574;38;129678;-70
2021/08/15 04:29:14;;;;;;;2.40;1.65;;;15.70;73.20;;;18.74;59.55;101492.19;3189716;38;129892;-70
2021/08/15 04:32:19;;;;;;;0.70;0.70;;;15.70;73.20;;;18.83;59.56;101495.56;3189711;30;130799;-70
2021/08/15 04:35:28;;;;;;;0.45;0.45;;;15.80;73.30;;;18.93;59.19;101497.88;3189696;38;130860;-70
2021/08/15 04:38:35;;;;;;;1.05;0.40;;;15.80;73.10;;;19.03;58.95;101498.19;3189191;38;132928;-70
2021/08/15 04:41:41;;;;;;;1.85;0.65;;;15.90;73.10;;;19.08;58.95;101500.72;3189982;30;131210;-70
2021/08/15 04:44:46;;;;;;;1.77;0.55;;;15.90;72.90;;;19.11;59.04;101502.75;3189842;38;131006;-70
2021/08/15 04:47:52;;;;;;;1.80;1.30;;;16.00;73.00;;;19.15;59.02;101487.38;3190134;30;130310;-70
2021/08/15 04:51:01;;;;;;;0.65;0.65;;;16.00;72.90;;;19.21;58.93;101490.63;3188384;38;130644;-70
2021/08/15 04:54:08;;;;;;;5.72;2.05;;;16.00;72.90;;;19.25;58.73;101484.19;3189404;38;131466;-71
2021/08/15 04:57:14;;;;;;;1.38;1.27;;;16.10;72.90;;;19.31;58.80;101482.03;3188784;38;129786;-70
2021/08/15 05:00:20;;;;;;;1.80;1.67;;;16.20;72.90;;;19.36;58.50;101473.66;3188970;38;132423;-70
2021/08/15 05:03:26;;;;;;;0.57;0.57;;;16.20;72.80;;;19.45;58.80;101468.88;3191783;30;129745;-70
2021/08/15 05:06:35;;;;;;;0.05;0.05;;;16.20;72.80;;;19.51;58.52;101470.22;3188681;38;130780;-71
2021/08/15 05:09:41;;;;;;;0.63;0.52;;;16.30;72.70;;;19.57;58.57;101471.59;3188661;38;130844;-70
2021/08/15 05:12:47;;;;;;;3.00;1.85;;;16.30;72.70;;;19.65;58.44;101470.66;3189095;30;129972;-70
2021/08/15 05:15:53;;;;;;;3.88;1.77;;;16.40;72.60;;;19.78;58.28;101480.34;3188943;38;130737;-71
2021/08/15 05:18:59;;;;;;;1.08;0.82;;;16.50;72.60;;;19.88;58.16;101474.44;3190496;30;130775;-70
2021/08/15 05:22:09;;;;;;;1.60;0.70;;;16.60;72.50;;;19.90;58.12;101456.63;3191029;30;131032;-71
2021/08/15 05:25:15;;;;;;;0.75;0.50;;;16.60;72.40;;;19.96;58.14;101449.00;3187962;38;129724;-70
2021/08/15 05:28:21;;;;;;;1.40;0.75;;;16.70;72.40;;;19.99;58.00;101437.44;3190717;30;130598;-70
2021/08/15 05:31:27;;;;;;;1.90;0.90;;;16.70;72.30;;;20.08;57.87;101441.59;3189004;38;129750;-70
2021/08/15 05:34:33;;;;;;;3.50;0.60;;;16.80;72.30;;;20.10;57.88;101433.88;3189023;38;130739;-71
2021/08/15 05:37:42;;;;;;;1.95;0.47;;;16.80;72.30;;;20.13;57.95;101440.56;3188938;31;129801;-70
2021/08/15 05:40:48;;;;;;;0.30;0.30;;;16.90;72.40;;;20.25;57.73;101457.59;3189226;30;129591;-70
2021/08/15 05:43:54;;;;;;;0.45;0.45;;;16.90;72.30;;;20.38;57.58;101461.06;3188963;38;129760;-70
2021/08/15 05:47:00;;;;;;;0.65;0.43;;;17.00;72.30;;;20.49;57.52;101462.13;3189879;30;130449;-71
2021/08/15 05:50:12;;;;;;;3.92;1.15;;;17.10;72.20;;;20.61;57.29;101449.25;3189287;38;129883;-71
2021/08/15 05:53:20;;;;;;;10.60;1.17;;;17.20;72.10;;;20.65;57.32;101461.78;3188752;38;130302;-71
2021/08/15 05:56:29;;;;;;;0.50;0.50;;;17.20;72.00;;;20.71;57.08;101441.31;3186404;38;131752;-70
2021/08/15 05:59:35;;;;;;;0.45;0.40;;;17.30;72.00;;;20.94;56.96;101439.56;3189800;38;131293;-71
2021/08/15 06:02:41;;;;;;;0.65;0.65;;;17.40;72.60;;;21.45;55.62;101445.78;3190457;38;129888;-71
2021/08/15 06:05:47;;;;;;;0.70;0.47;;;17.70;71.70;;;22.14;54.62;101454.66;3188108;38;130769;-70
2021/08/15 06:08:56;;;;;;;0.20;0.20;;;18.10;71.20;;;23.54;51.90;101448.78;3188707;38;130192;-71
2021/08/15 06:12:05;;;;;;;1.40;0.85;;;18.80;70.40;;;24.11;51.24;101447.19;3189346;30;130942;-71
2021/08/15 06:15:14;;;;;;;15.80;2.03;;;19.40;69.70;;;23.80;52.71;101446.00;3188991;38;129893;-72
2021/08/15 06:18:20;;;;;;;4.18;2.42;;;19.70;69.50;;;23.61;53.25;101436.00;3188980;30;131285;-72
2021/08/15 06:21:26;;;;;;;0.60;0.60;;;19.70;69.60;;;23.40;54.36;101432.16;3189716;30;131255;-71
2021/08/15 06:24:36;;;;;;;2.83;1.52;;;19.70;69.80;;;23.29;54.75;101434.78;3188985;38;130064;-72
2021/08/15 06:27:44;;;;;;;0.73;0.73;;;19.70;69.90;;;23.38;54.80;101424.34;3188884;38;129965;-71
2021/08/15 06:30:50;;;;;;;4.03;0.63;;;19.70;69.90;;;23.43;54.80;101428.72;3189616;38;129817;-71
2021/08/15 06:33:57;;;;;;;0.85;0.50;;;19.80;70.10;;;23.56;54.64;101430.06;3188345;38;130384;-71
2021/08/15 06:37:03;;;;;;;2.15;0.90;;;19.90;70.00;;;23.60;54.54;101430.88;3189262;30;133180;-71
2021/08/15 06:40:14;;;;;;;1.52;0.95;;;19.90;69.90;;;23.82;54.24;101425.31;3190489;30;131089;-71
2021/08/15 06:43:20;;;;;;;1.35;0.93;;;20.10;70.00;;;24.49;53.07;101430.31;3188240;30;129968;-72
2021/08/15 06:46:27;;;;;;;0.90;0.85;;;;;;;30.06;42.64;101417.69;3190777;30;130616;-72
2021/08/15 06:49:33;;;;;;;0.32;0.32;;;22.40;67.50;;;32.09;41.43;101423.81;3189403;38;130068;-72
2021/08/15 06:52:39;;;;;;;3.85;1.65;;;23.90;66.80;;;34.56;38.56;101412.53;3192566;30;130717;-72
2021/08/15 06:55:47;;;;;;;1.20;0.80;;;25.90;65.00;;;34.72;39.78;101407.63;3190031;38;130785;-72
2021/08/15 06:58:53;;;;;;;1.98;1.20;;;26.80;64.80;;;37.10;38.03;101407.47;3188944;38;129987;-72
2021/08/15 07:01:59;;;;;;;5.43;1.98;;;28.40;64.10;;;40.48;34.70;101411.59;3195642;38;130325;-73
2021/08/15 07:05:11;;;;;;;1.67;1.45;;;30.30;63.10;;;39.87;37.17;101406.28;3196535;38;129761;-73
2021/08/15 07:08:16;;;;;;;7.47;3.03;;;31.60;62.70;;;39.77;38.58;101404.84;3191934;30;130805;-73
2021/08/15 07:11:25;;;;;;;4.60;1.10;;;32.00;62.70;;;42.79;34.68;101393.91;3189952;38;130772;-73
2021/08/15 07:14:31;;;;;;;1.45;1.25;;;33.30;61.70;;;42.91;35.29;101395.53;3189524;38;129813;-73
2021/08/15 07:17:40;;;;;;;3.45;2.17;;;34.30;61.40;;;43.14;36.26;101383.78;3187128;38;132096;-73
2021/08/15 07:20:46;;;;;;;7.07;3.13;;;35.00;61.40;;;40.48;41.95;101389.09;3189734;38;130165;-73
2021/08/15 07:23:52;;;;;;;4.47;1.58;;;34.80;61.80;;;40.67;41.11;101395.97;3189001;30;129725;-73
2021/08/15 07:27:01;;;;;;;4.00;1.30;;;34.20;63.00;;;42.78;37.73;101392.38;3190179;38;130015;-73
2021/08/15 07:30:13;;;;;;;1.10;1.00;;;34.30;63.40;;;41.27;41.36;101384.66;3188904;38;130747;-73
2021/08/15 07:33:19;;;;;;;1.20;1.10;;;34.60;63.70;;;45.16;35.63;101393.94;3189036;30;130180;-73
2021/08/15 07:36:25;;;;;;;1.02;0.90;;;35.50;63.60;;;47.40;33.41;101389.88;3188196;30;131032;-73
2021/08/15 07:39:31;;;;;;;2.85;2.35;;;36.80;62.70;;;48.12;33.01;101380.84;3190916;38;129731;-72
2021/08/15 07:42:40;;;;;;;7.20;2.33;;;37.90;62.10;;;46.91;35.42;101373.59;3189172;38;130815;-71
2021/08/15 07:45:47;;;;;;;3.28;1.85;;;38.20;61.90;;;43.90;40.99;101351.22;3189919;38;130812;-71
2021/08/15 07:48:53;;;;;;;4.85;1.77;;;37.90;62.60;;;40.97;45.97;101363.63;3187723;38;130112;-72
2021/08/15 07:51:59;;;;;;;2.92;1.33;;;36.70;63.80;;;44.95;38.06;101364.44;3189717;30;130691;-72
2021/08/15 07:55:10;;;;;;;1.42;1.10;;;36.70;64.00;;;46.59;35.92;101357.78;3190432;30;130217;-72
2021/08/15 07:58:19;;;;;;;1.42;0.90;;;37.10;63.70;;;45.67;37.75;101359.03;3187363;38;131348;-72
2021/08/15 08:01:25;;;;;;;1.02;0.70;;;37.50;63.10;;;48.02;34.90;101367.63;3188916;38;129901;-72
2021/08/15 08:04:33;;;;;;;2.10;1.20;;;38.00;63.10;;;49.53;33.33;101372.50;3189008;30;131523;-72
2021/08/15 08:07:39;;;;;;;1.95;1.13;;;38.80;63.20;;;50.37;32.51;101361.13;3187669;30;129839;-73
2021/08/15 08:10:47;;;;;;;3.53;1.58;;;39.40;62.60;;;50.80;31.76;101352.56;3185707;38;131668;-73
2021/08/15 08:13:56;;;;;;;4.32;1.85;;;39.80;62.00;;;50.44;32.64;101344.03;3185543;38;130057;-73
2021/08/15 08:17:01;;;;;;;2.30;1.92;;;40.10;62.10;;;45.75;41.00;101339.38;3186866;30;129923;-73
2021/08/15 08:20:16;;;;;;;2.88;1.60;;;39.70;63.00;;;43.71;44.46;101338.91;3186602;30;129841;-72
2021/08/15 08:23:22;;;;;;;9.65;1.65;;;38.80;64.00;;;46.56;37.98;101336.13;3186706;30;129768;-72
2021/08/15 08:26:28;;;;;;;0.70;0.65;;;38.10;64.60;;;47.53;36.08;101333.09;3187217;30;132468;-72
2021/08/15 08:29:36;;;;;;;3.50;1.98;;;38.30;64.30;;;49.00;34.50;101336.25;3186325;38;130327;-73
2021/08/15 08:32:42;;;;;;;1.08;0.77;;;38.60;64.20;;;47.26;37.46;101322.94;3186612;38;130593;-73
2021/08/15 08:35:48;;;;;;;11.48;3.00;;;38.80;64.00;;;43.53;44.17;101317.63;3188044;30;131844;-72
2021/08/15 08:38:54;;;;;;;0.75;0.73;;;38.40;64.00;;;43.52;43.88;101306.81;3187204;30;130319;-72
2021/08/15 08:42:06;;;;;;;1.95;1.08;;;37.80;64.60;;;43.73;42.22;101308.88;3186985;30;129940;-72
2021/08/15 08:45:22;;;;;;;4.60;1.65;;;37.40;64.50;;;42.14;45.18;101305.75;3184743;38;131358;-72
2021/08/15 08:48:28;;;;;;;3.65;1.52;;;37.00;64.40;;;40.69;47.64;101299.91;3188990;30;130661;-73
2021/08/15 08:51:34;;;;;;;2.22;0.65;;;36.50;64.80;;;44.36;39.03;101294.78;3187099;38;130946;-72
2021/08/15 08:55:06;;;;;;;9.20;0.57;;;36.10;65.30;;;45.66;37.14;101298.03;3183532;38;131581;-72
2021/08/15 08:58:11;;;;;;;0.37;0.30;;;36.30;65.40;;;46.87;35.79;101294.41;3184161;38;129882;-73
2021/08/15 09:01:20;;;;;;;1.95;1.15;;;36.70;65.80;;;44.69;39.89;101292.59;3183722;38;130271;-73
2021/08/15 09:04:27;;;;;;;0.95;0.65;;;37.00;66.00;;;46.24;36.83;101287.06;3184165;38;131377;-73
2021/08/15 09:07:38;;;;;;;2.10;0.90;;;37.00;65.50;;;47.91;34.37;101288.22;3184253;38;129690;-72
2021/08/15 09:10:44;;;;;;;0.50;0.43;;;37.50;65.20;;;47.02;36.06;101289.03;3184499;38;130798;-72
2021/08/15 09:14:05;;;;;;;1.38;0.82;;;37.90;64.80;;;46.31;37.34;101286.44;3184739;30;130658;-72
2021/08/15 09:17:15;;;;;;;0.65;0.55;;;37.90;63.80;;;45.66;38.39;101269.69;3187318;30;131412;-71
2021/08/15 09:20:27;;;;;;;4.47;1.73;;;37.70;64.20;;;46.83;36.68;101279.75;3187151;38;131395;-72
2021/08/15 09:23:37;;;;;;;1.30;1.10;;;37.60;65.20;;;46.33;36.89;101278.16;3186450;38;130611;-71
2021/08/15 09:26:58;;;;;;;1.90;1.13;;;37.50;64.80;;;46.41;37.12;101279.88;3186938;38;129659;-71
2021/08/15 09:30:23;;;;;;;0.28;0.28;;;37.40;64.80;;;46.62;37.30;101278.03;3185730;38;129856;-71
2021/08/15 09:33:32;;;;;;;8.45;1.40;;;37.60;64.80;;;46.54;37.31;101274.25;3187472;38;129736;-71
2021/08/15 09:36:45;;;;;;;0.73;0.38;;;37.80;64.60;;;46.34;37.69;101274.81;3185851;38;131590;-72
2021/08/15 09:39:51;;;;;;;0.15;0.15;;;37.90;64.40;;;45.70;39.15;101275.81;3188075;30;130451;-72
2021/08/15 09:42:58;;;;;;;0.60;0.60;;;37.90;64.60;;;44.87;40.35;101271.41;3186347;38;131158;-74
2021/08/15 09:46:07;;;;;;;2.10;1.02;;;37.80;64.40;;;44.66;40.71;101282.31;3187654;38;130735;-73
2021/08/15 09:49:18;;;;;;;0.82;0.80;;;37.70;64.70;;;43.77;42.26;101261.38;3187372;30;131325;-73
2021/08/15 09:52:41;;;;;;;4.43;1.63;;;37.50;64.40;;;41.94;45.18;101262.84;3185450;31;129634;-73
2021/08/15 09:55:48;;;;;;;1.33;0.73;;;37.20;64.60;;;41.30;46.26;101254.25;3184886;38;130922;-72
2021/08/15 09:59:13;;;;;;;1.33;1.00;;;36.80;64.50;;;41.10;45.98;101251.50;3188693;30;129896;-73
2021/08/15 10:02:21;;;;;;;3.42;0.73;;;36.40;64.40;;;41.20;45.95;101252.09;3186408;38;130220;-73
2021/08/15 10:05:30;;;;;;;9.20;1.52;;;36.40;65.00;;;40.93;46.19;101255.44;3185818;38;130254;-72
2021/08/15 10:08:37;;;;;;;1.08;0.95;;;36.30;64.90;;;39.94;47.69;101249.41;3186790;38;129883;-74
2021/08/15 10:11:45;;;;;;;1.08;0.68;;;36.10;64.60;;;39.11;49.50;101251.41;3186279;30;130512;-73
2021/08/15 10:14:56;;;;;;;1.67;1.10;;;35.60;64.90;;;38.60;49.85;101251.00;3186325;38;131471;-72
2021/08/15 10:18:06;;;;;;;2.72;1.17;;;35.20;65.00;;;38.03;51.11;101233.53;3187376;38;129960;-72
2021/08/15 10:21:20;;;;;;;1.55;0.88;;;34.80;65.40;;;37.96;50.62;101236.69;3187143;38;130155;-73
2021/08/15 10:24:42;;;;;;;1.08;0.95;;;34.50;65.60;;;38.13;49.46;101226.63;3185911;30;131586;-73
2021/08/15 10:27:52;;;;;;;5.18;0.85;;;34.40;65.50;;;37.84;49.55;101220.13;3185217;38;130355;-72
2021/08/15 10:31:01;;;;;;;0.55;0.55;;;34.10;65.20;;;37.41;49.75;101214.28;3185414;38;130831;-72
2021/08/15 10:34:17;;;;;;;1.50;1.02;;;33.90;65.10;;;37.12;49.76;101223.25;3182888;38;129923;-73
2021/08/15 10:37:40;;;;;;;2.17;0.90;;;33.50;65.00;;;37.06;49.74;101221.56;3183943;38;134875;-72
2021/08/15 10:40:51;;;;;;;;;;;33.20;64.90;;;36.61;49.56;101222.41;3185956;30;131372;-73
2021/08/15 10:44:08;;;;;;;0.85;0.57;;;33.00;64.80;;;36.52;49.79;101210.44;3183302;38;129873;-72
2021/08/15 10:47:17;;;;;;;1.88;0.70;;;32.70;65.00;;;36.38;49.08;101216.69;3181978;38;131119;-71
2021/08/15 10:50:45;;;;;;;28.38;1.88;;;32.60;64.80;;;36.32;48.66;101210.94;3183155;38;132668;-71
2021/08/15 10:53:54;;;;;;;1.33;0.55;;;32.40;64.60;;;36.27;48.81;101203.19;3185199;38;130931;-71
2021/08/15 10:57:04;;;;;;;0.77;0.60;;;32.30;64.80;;;36.42;48.12;101208.91;3180229;38;130450;-73
2021/08/15 11:00:49;;;;;;;0.25;0.25;;;32.30;64.90;;;36.41;48.54;101202.53;3183858;30;130936;-72
2021/08/15 11:03:56;;;;;;;1.45;0.70;;;32.40;64.30;;;36.31;48.16;101198.22;3183517;38;131998;-71
2021/08/15 11:07:07;;;;;;;4.95;1.17;;;32.30;64.50;;;36.56;48.13;101197.13;3183232;38;130825;-71
2021/08/15 11:10:17;;;;;;;0.57;0.32;;;32.30;64.50;;;36.38;48.29;101195.09;3183057;38;131029;-72
2021/08/15 11:13:24;;;;;;;0.50;0.32;;;32.40;64.20;;;36.47;48.08;101199.91;3184985;38;129817;-72
2021/08/15 11:16:50;;;;;;;0.35;0.30;;;32.40;64.10;;;36.20;47.80;101192.34;3182885;38;130033;-72
2021/08/15 11:19:58;;;;;;;0.93;0.30;;;32.30;63.60;;;35.98;48.32;101186.09;3183051;38;130606;-73
2021/08/15 11:23:15;;;;;;;2.17;1.40;;;32.20;64.00;;;35.92;48.62;101181.59;3183114;38;130039;-73
2021/08/15 11:26:24;;;;;;;2.25;1.08;;;32.10;63.60;;;35.70;48.41;101183.72;3181051;30;131287;-73
2021/08/15 11:29:30;;;;;;;0.20;0.20;;;32.00;64.00;;;35.60;48.71;101176.56;3182823;38;129738;-73
2021/08/15 11:32:42;;;;;;;0.25;0.25;;;31.90;64.00;;;35.43;49.03;101175.28;3183244;38;130739;-74
2021/08/15 11:35:48;;;;;;;0.90;0.70;;;31.80;64.20;;;35.39;49.05;101165.50;3185015;38;130715;-73
2021/08/15 11:38:54;;;;;;;0.00;0.00;;;31.70;64.20;;;35.32;48.87;101169.34;3187391;30;130401;-75
2021/08/15 11:42:09;;;;;;;0.93;0.63;;;31.60;64.30;;;35.45;48.87;101166.44;3187143;38;131705;-75
2021/08/15 11:45:15;;;;;;;0.63;0.63;;;31.60;64.20;;;35.40;48.81;101167.81;3185428;30;130804;-72
2021/08/15 11:48:24;;;;;;;5.57;0.70;;;31.60;63.90;;;34.97;48.78;101173.53;3184684;38;130642;-74
2021/08/15 11:51:30;;;;;;;0.10;0.10;;;31.40;63.90;;;34.81;49.52;101165.38;3186548;38;130887;-74
2021/08/15 11:54:40;;;;;;;0.65;0.50;;;31.30;64.00;;;34.77;48.99;101163.97;3186081;30;130840;-73
2021/08/15 11:57:52;;;;;;;0.30;0.30;;;31.20;64.10;;;35.15;48.24;101151.34;3184629;38;130231;-74
2021/08/15 12:00:57;;;;;;;0.20;0.20;;;31.30;63.90;;;35.21;48.43;101163.44;3187193;38;129742;-74
2021/08/15 12:04:06;;;;;;;17.15;0.98;;;31.40;63.80;;;35.06;48.07;101147.72;3185654;38;131256;-73
2021/08/15 12:07:12;;;;;;;0.30;0.28;;;31.40;63.60;;;35.20;48.10;101147.16;3187716;38;129864;-74
2021/08/15 12:10:32;;;;;;;0.93;0.82;;;31.40;63.60;;;34.91;48.32;101149.50;3187605;38;130833;-73
2021/08/15 12:13:41;;;;;;;0.70;0.63;;;31.30;63.20;;;34.99;48.20;101140.41;3188249;38;132986;-74
2021/08/15 12:16:58;;;;;;;0.98;0.32;;;31.30;63.40;;;35.15;47.91;101145.78;3191666;38;129173;-74
2021/08/15 12:20:22;;;;;;;0.60;0.38;;;31.30;63.10;;;34.95;48.21;101134.19;3201064;38;130620;-74
2021/08/15 12:23:30;;;;;;;1.65;0.35;;;31.30;62.90;;;34.57;49.01;101141.25;3189251;30;130549;-74
2021/08/15 12:26:38;;;;;;;0.35;0.30;;;31.10;63.20;;;34.32;49.24;101138.59;3187064;38;130122;-75
2021/08/15 12:29:58;;;;;;;1.02;0.75;;;31.00;63.30;;;34.12;49.62;101135.34;3188892;30;130497;-75
2021/08/15 12:33:07;;;;;;;1.67;0.85;;;30.80;63.40;;;34.25;48.89;101134.09;3188497;38;130469;-74
2021/08/15 12:36:23;;;;;;;18.02;2.33;;;30.70;63.50;;;34.38;48.64;101137.56;3187909;38;131211;-74
2021/08/15 12:39:35;;;;;;;1.45;0.40;;;30.80;63.10;;;34.14;48.48;101133.66;3186399;38;129923;-74
2021/08/15 12:42:55;;;;;;;0.80;0.65;;;30.70;63.00;;;33.95;48.87;101135.97;3187519;30;130758;-74
2021/08/15 12:46:05;;;;;;;0.38;0.38;;;30.60;63.00;;;34.21;48.66;101125.06;3187199;38;129760;-74
2021/08/15 12:49:25;;;;;;;0.57;0.55;;;30.60;63.20;;;34.49;48.13;101123.25;3186258;38;131297;-73
2021/08/15 12:52:30;;;;;;;2.50;0.85;;;30.70;62.80;;;34.79;47.22;101120.50;3187049;38;130316;-72
2021/08/15 12:55:38;;;;;;;1.98;0.65;;;30.90;62.90;;;34.59;47.48;101124.84;3186895;38;131080;-72